sensor_id;sensor_type;location;lat;lon;timestamp;temperature;humidity
53904;DHT22;39812;52.430;16.936;2022-07-23T00:02:05;19.00;99.90
53904;DHT22;39812;52.430;16.936;2022-07-23T00:04:32;19.10;99.90
53904;DHT22;39812;52.430;16.936;2022-07-23T00:06:57;19.10;99.90
53904;DHT22;39812;52.430;16.936;2022-07-23T00:09:23;19.20;99.90
53904;DHT22;39812;52.430;16.936;2022-07-23T00:11:48;19.10;99.90
53904;DHT22;39812;52.430;16.936;2022-07-23T00:14:14;19.10;99.90
53904;DHT22;39812;52.430;16.936;2022-07-23T00:16:39;19.20;99.90
53904;DHT22;39812;52.430;16.936;2022-07-23T00:19:05;19.10;99.90
53904;DHT22;39812;52.430;16.936;2022-07-23T00:21:30;19.10;99.90
53904;DHT22;39812;52.430;16.936;2022-07-23T00:23:56;19.00;99.90
53904;DHT22;39812;52.430;16.936;2022-07-23T00:26:21;19.00;99.90
53904;DHT22;39812;52.430;16.936;2022-07-23T00:28:46;19.00;99.90
53904;DHT22;39812;52.430;16.936;2022-07-23T00:31:12;19.10;99.90
53904;DHT22;39812;52.430;16.936;2022-07-23T00:33:37;19.10;99.90
53904;DHT22;39812;52.430;16.936;2022-07-23T00:36:03;19.00;99.90
53904;DHT22;39812;52.430;16.936;2022-07-23T00:38:29;18.90;99.90
53904;DHT22;39812;52.430;16.936;2022-07-23T00:40:54;18.90;99.90
53904;DHT22;39812;52.430;16.936;2022-07-23T00:43:20;18.90;99.90
53904;DHT22;39812;52.430;16.936;2022-07-23T00:45:47;18.70;99.90
53904;DHT22;39812;52.430;16.936;2022-07-23T00:48:12;18.60;99.90
53904;DHT22;39812;52.430;16.936;2022-07-23T00:50:38;18.50;99.90
53904;DHT22;39812;52.430;16.936;2022-07-23T00:53:04;18.60;99.90
53904;DHT22;39812;52.430;16.936;2022-07-23T00:55:30;18.50;99.90
53904;DHT22;39812;52.430;16.936;2022-07-23T00:57:55;18.40;99.90
53904;DHT22;39812;52.430;16.936;2022-07-23T01:00:22;18.40;99.90
53904;DHT22;39812;52.430;16.936;2022-07-23T01:02:48;18.30;99.90
53904;DHT22;39812;52.430;16.936;2022-07-23T01:05:13;18.30;99.90
53904;DHT22;39812;52.430;16.936;2022-07-23T01:07:39;18.40;99.90
53904;DHT22;39812;52.430;16.936;2022-07-23T01:10:05;18.40;99.90
53904;DHT22;39812;52.430;16.936;2022-07-23T01:12:51;18.50;99.90
53904;DHT22;39812;52.430;16.936;2022-07-23T01:15:16;18.50;99.90
53904;DHT22;39812;52.430;16.936;2022-07-23T01:17:42;18.40;99.90
53904;DHT22;39812;52.430;16.936;2022-07-23T01:20:07;18.40;99.90
53904;DHT22;39812;52.430;16.936;2022-07-23T01:22:33;18.30;99.90
53904;DHT22;39812;52.430;16.936;2022-07-23T01:24:59;18.30;99.90
53904;DHT22;39812;52.430;16.936;2022-07-23T01:27:24;18.30;99.90
53904;DHT22;39812;52.430;16.936;2022-07-23T01:29:50;18.30;99.90
53904;DHT22;39812;52.430;16.936;2022-07-23T01:32:15;18.40;99.90
53904;DHT22;39812;52.430;16.936;2022-07-23T01:34:41;18.50;99.90
53904;DHT22;39812;52.430;16.936;2022-07-23T01:37:06;18.60;99.90
53904;DHT22;39812;52.430;16.936;2022-07-23T01:39:32;18.60;99.90
53904;DHT22;39812;52.430;16.936;2022-07-23T01:41:57;18.60;99.90
53904;DHT22;39812;52.430;16.936;2022-07-23T01:44:23;18.60;99.90
53904;DHT22;39812;52.430;16.936;2022-07-23T01:46:48;18.50;99.90
53904;DHT22;39812;52.430;16.936;2022-07-23T01:49:13;18.50;99.90
53904;DHT22;39812;52.430;16.936;2022-07-23T01:51:39;18.60;99.90
53904;DHT22;39812;52.430;16.936;2022-07-23T01:54:33;18.70;99.90
53904;DHT22;39812;52.430;16.936;2022-07-23T01:57:00;18.70;99.90
53904;DHT22;39812;52.430;16.936;2022-07-23T01:59:27;18.70;99.90
53904;DHT22;39812;52.430;16.936;2022-07-23T02:01:53;18.70;99.90
53904;DHT22;39812;52.430;16.936;2022-07-23T02:04:19;18.60;99.90
53904;DHT22;39812;52.430;16.936;2022-07-23T02:06:45;18.50;99.90
53904;DHT22;39812;52.430;16.936;2022-07-23T02:09:10;18.50;99.90
53904;DHT22;39812;52.430;16.936;2022-07-23T02:11:36;18.40;99.90
53904;DHT22;39812;52.430;16.936;2022-07-23T02:14:02;18.40;99.90
53904;DHT22;39812;52.430;16.936;2022-07-23T02:16:27;18.20;99.90
53904;DHT22;39812;52.430;16.936;2022-07-23T02:18:53;18.20;99.90
53904;DHT22;39812;52.430;16.936;2022-07-23T02:21:18;18.20;99.90
53904;DHT22;39812;52.430;16.936;2022-07-23T02:23:44;18.30;99.90
53904;DHT22;39812;52.430;16.936;2022-07-23T02:26:10;18.40;99.90
53904;DHT22;39812;52.430;16.936;2022-07-23T02:28:35;18.50;99.90
53904;DHT22;39812;52.430;16.936;2022-07-23T02:31:00;18.60;99.90
53904;DHT22;39812;52.430;16.936;2022-07-23T02:33:26;18.60;99.90
53904;DHT22;39812;52.430;16.936;2022-07-23T02:35:52;18.60;99.90
53904;DHT22;39812;52.430;16.936;2022-07-23T02:38:17;18.70;99.90
53904;DHT22;39812;52.430;16.936;2022-07-23T02:40:42;18.80;99.90
53904;DHT22;39812;52.430;16.936;2022-07-23T02:43:08;18.80;99.90
53904;DHT22;39812;52.430;16.936;2022-07-23T02:45:33;18.80;99.90
53904;DHT22;39812;52.430;16.936;2022-07-23T02:47:59;18.80;99.90
53904;DHT22;39812;52.430;16.936;2022-07-23T02:50:24;18.70;99.90
53904;DHT22;39812;52.430;16.936;2022-07-23T02:52:50;18.60;99.90
53904;DHT22;39812;52.430;16.936;2022-07-23T02:55:15;18.50;99.90
53904;DHT22;39812;52.430;16.936;2022-07-23T02:57:41;18.50;99.90
53904;DHT22;39812;52.430;16.936;2022-07-23T03:00:07;18.40;99.90
53904;DHT22;39812;52.430;16.936;2022-07-23T03:02:33;18.40;99.90
53904;DHT22;39812;52.430;16.936;2022-07-23T03:04:58;18.30;99.90
53904;DHT22;39812;52.430;16.936;2022-07-23T03:07:24;18.30;99.90
53904;DHT22;39812;52.430;16.936;2022-07-23T03:09:49;18.30;99.90
53904;DHT22;39812;52.430;16.936;2022-07-23T03:12:15;18.20;99.90
53904;DHT22;39812;52.430;16.936;2022-07-23T03:14:41;18.20;99.90
53904;DHT22;39812;52.430;16.936;2022-07-23T03:17:06;18.20;99.90
53904;DHT22;39812;52.430;16.936;2022-07-23T03:19:32;18.20;99.90
53904;DHT22;39812;52.430;16.936;2022-07-23T03:21:58;18.20;99.90
53904;DHT22;39812;52.430;16.936;2022-07-23T03:24:23;18.20;99.90
53904;DHT22;39812;52.430;16.936;2022-07-23T03:27:09;18.30;99.90
53904;DHT22;39812;52.430;16.936;2022-07-23T03:29:34;18.30;99.90
53904;DHT22;39812;52.430;16.936;2022-07-23T03:32:00;18.30;99.90
53904;DHT22;39812;52.430;16.936;2022-07-23T03:34:25;18.30;99.90
53904;DHT22;39812;52.430;16.936;2022-07-23T03:36:51;18.30;99.90
53904;DHT22;39812;52.430;16.936;2022-07-23T03:39:16;18.40;99.90
53904;DHT22;39812;52.430;16.936;2022-07-23T03:41:41;18.50;99.90
53904;DHT22;39812;52.430;16.936;2022-07-23T03:44:07;18.50;99.90
53904;DHT22;39812;52.430;16.936;2022-07-23T03:46:32;18.60;99.90
53904;DHT22;39812;52.430;16.936;2022-07-23T03:48:58;18.60;99.90
53904;DHT22;39812;52.430;16.936;2022-07-23T03:51:23;18.70;99.90
53904;DHT22;39812;52.430;16.936;2022-07-23T03:53:49;18.70;99.90
53904;DHT22;39812;52.430;16.936;2022-07-23T03:56:14;18.80;99.90
53904;DHT22;39812;52.430;16.936;2022-07-23T03:58:40;18.90;99.90
53904;DHT22;39812;52.430;16.936;2022-07-23T04:01:05;18.90;99.90
53904;DHT22;39812;52.430;16.936;2022-07-23T04:03:31;18.90;99.90
53904;DHT22;39812;52.430;16.936;2022-07-23T04:05:56;18.90;99.90
53904;DHT22;39812;52.430;16.936;2022-07-23T04:08:22;18.90;99.90
53904;DHT22;39812;52.430;16.936;2022-07-23T04:10:47;19.00;99.90
53904;DHT22;39812;52.430;16.936;2022-07-23T04:13:13;19.00;99.90
53904;DHT22;39812;52.430;16.936;2022-07-23T04:15:38;19.10;99.90
53904;DHT22;39812;52.430;16.936;2022-07-23T04:18:04;19.10;99.90
53904;DHT22;39812;52.430;16.936;2022-07-23T04:20:30;19.20;99.90
53904;DHT22;39812;52.430;16.936;2022-07-23T04:22:55;19.40;99.90
53904;DHT22;39812;52.430;16.936;2022-07-23T04:25:21;19.50;99.90
53904;DHT22;39812;52.430;16.936;2022-07-23T04:27:46;19.60;99.90
53904;DHT22;39812;52.430;16.936;2022-07-23T04:30:12;19.70;99.90
53904;DHT22;39812;52.430;16.936;2022-07-23T04:32:37;19.80;99.90
53904;DHT22;39812;52.430;16.936;2022-07-23T04:35:03;19.90;99.90
53904;DHT22;39812;52.430;16.936;2022-07-23T04:37:28;20.00;99.90
53904;DHT22;39812;52.430;16.936;2022-07-23T04:39:54;20.10;99.90
53904;DHT22;39812;52.430;16.936;2022-07-23T04:42:19;20.30;99.90
53904;DHT22;39812;52.430;16.936;2022-07-23T04:44:45;20.40;99.90
53904;DHT22;39812;52.430;16.936;2022-07-23T04:47:10;20.50;99.90
53904;DHT22;39812;52.430;16.936;2022-07-23T04:49:36;20.60;99.90
53904;DHT22;39812;52.430;16.936;2022-07-23T04:52:01;20.70;99.90
53904;DHT22;39812;52.430;16.936;2022-07-23T04:54:27;20.80;99.90
53904;DHT22;39812;52.430;16.936;2022-07-23T04:56:52;20.90;99.90
53904;DHT22;39812;52.430;16.936;2022-07-23T04:59:18;20.90;99.90
53904;DHT22;39812;52.430;16.936;2022-07-23T05:01:43;20.90;99.90
53904;DHT22;39812;52.430;16.936;2022-07-23T05:04:09;21.00;99.90
53904;DHT22;39812;52.430;16.936;2022-07-23T05:06:34;21.10;99.90
53904;DHT22;39812;52.430;16.936;2022-07-23T05:09:00;21.10;99.90
53904;DHT22;39812;52.430;16.936;2022-07-23T05:11:25;21.20;99.90
53904;DHT22;39812;52.430;16.936;2022-07-23T05:13:51;21.10;99.90
53904;DHT22;39812;52.430;16.936;2022-07-23T05:16:16;21.20;99.90
53904;DHT22;39812;52.430;16.936;2022-07-23T05:18:42;21.20;99.90
53904;DHT22;39812;52.430;16.936;2022-07-23T05:21:07;21.30;99.90
53904;DHT22;39812;52.430;16.936;2022-07-23T05:23:33;21.30;99.90
53904;DHT22;39812;52.430;16.936;2022-07-23T05:25:58;21.30;99.90
53904;DHT22;39812;52.430;16.936;2022-07-23T05:28:24;21.30;99.90
53904;DHT22;39812;52.430;16.936;2022-07-23T05:30:49;21.50;99.90
53904;DHT22;39812;52.430;16.936;2022-07-23T05:33:15;21.60;99.90
53904;DHT22;39812;52.430;16.936;2022-07-23T05:35:40;21.60;99.90
53904;DHT22;39812;52.430;16.936;2022-07-23T05:38:06;21.70;99.90
53904;DHT22;39812;52.430;16.936;2022-07-23T05:40:31;21.70;99.90
53904;DHT22;39812;52.430;16.936;2022-07-23T05:42:58;21.80;99.90
53904;DHT22;39812;52.430;16.936;2022-07-23T05:45:23;21.90;99.90
53904;DHT22;39812;52.430;16.936;2022-07-23T05:47:49;22.00;99.90
53904;DHT22;39812;52.430;16.936;2022-07-23T05:50:15;22.00;99.90
53904;DHT22;39812;52.430;16.936;2022-07-23T05:52:41;22.10;99.90
53904;DHT22;39812;52.430;16.936;2022-07-23T05:55:08;22.20;99.90
53904;DHT22;39812;52.430;16.936;2022-07-23T05:57:34;22.30;99.90
53904;DHT22;39812;52.430;16.936;2022-07-23T06:00:00;22.30;99.90
53904;DHT22;39812;52.430;16.936;2022-07-23T06:02:25;22.40;99.90
53904;DHT22;39812;52.430;16.936;2022-07-23T06:04:51;22.50;99.90
53904;DHT22;39812;52.430;16.936;2022-07-23T06:07:16;22.60;99.90
53904;DHT22;39812;52.430;16.936;2022-07-23T06:09:42;22.70;99.90
53904;DHT22;39812;52.430;16.936;2022-07-23T06:12:08;22.70;99.90
53904;DHT22;39812;52.430;16.936;2022-07-23T06:14:33;22.70;99.90
53904;DHT22;39812;52.430;16.936;2022-07-23T06:16:58;22.90;99.90
53904;DHT22;39812;52.430;16.936;2022-07-23T06:19:24;23.00;99.90
53904;DHT22;39812;52.430;16.936;2022-07-23T06:21:50;23.00;99.90
53904;DHT22;39812;52.430;16.936;2022-07-23T06:24:15;23.10;99.90
53904;DHT22;39812;52.430;16.936;2022-07-23T06:26:41;23.10;99.90
53904;DHT22;39812;52.430;16.936;2022-07-23T06:29:06;23.20;99.90
53904;DHT22;39812;52.430;16.936;2022-07-23T06:31:32;23.30;99.90
53904;DHT22;39812;52.430;16.936;2022-07-23T06:33:58;23.40;99.90
53904;DHT22;39812;52.430;16.936;2022-07-23T06:36:24;23.50;99.90
53904;DHT22;39812;52.430;16.936;2022-07-23T06:38:49;23.60;99.90
53904;DHT22;39812;52.430;16.936;2022-07-23T06:41:15;23.70;99.90
53904;DHT22;39812;52.430;16.936;2022-07-23T06:43:41;23.90;99.90
53904;DHT22;39812;52.430;16.936;2022-07-23T06:46:06;24.10;99.90
53904;DHT22;39812;52.430;16.936;2022-07-23T06:48:32;24.20;99.90
53904;DHT22;39812;52.430;16.936;2022-07-23T06:50:59;24.40;99.90
53904;DHT22;39812;52.430;16.936;2022-07-23T06:53:25;24.50;99.90
53904;DHT22;39812;52.430;16.936;2022-07-23T06:55:50;24.70;99.90
53904;DHT22;39812;52.430;16.936;2022-07-23T06:58:16;24.80;99.90
53904;DHT22;39812;52.430;16.936;2022-07-23T07:00:41;25.10;99.20
53904;DHT22;39812;52.430;16.936;2022-07-23T07:03:07;25.40;98.70
53904;DHT22;39812;52.430;16.936;2022-07-23T07:05:32;25.60;98.30
53904;DHT22;39812;52.430;16.936;2022-07-23T07:07:58;26.10;97.90
53904;DHT22;39812;52.430;16.936;2022-07-23T07:10:23;26.70;97.10
53904;DHT22;39812;52.430;16.936;2022-07-23T07:12:49;27.30;96.20
53904;DHT22;39812;52.430;16.936;2022-07-23T07:15:14;27.40;95.40
53904;DHT22;39812;52.430;16.936;2022-07-23T07:17:40;27.70;94.90
53904;DHT22;39812;52.430;16.936;2022-07-23T07:20:07;27.80;93.80
53904;DHT22;39812;52.430;16.936;2022-07-23T07:22:33;28.10;93.30
53904;DHT22;39812;52.430;16.936;2022-07-23T07:24:59;28.40;92.70
53904;DHT22;39812;52.430;16.936;2022-07-23T07:27:24;28.30;92.30
53904;DHT22;39812;52.430;16.936;2022-07-23T07:29:49;28.40;92.10
53904;DHT22;39812;52.430;16.936;2022-07-23T07:32:15;28.40;91.40
53904;DHT22;39812;52.430;16.936;2022-07-23T07:34:40;28.70;91.30
53904;DHT22;39812;52.430;16.936;2022-07-23T07:37:06;29.00;90.70
53904;DHT22;39812;52.430;16.936;2022-07-23T07:39:31;28.70;90.60
53904;DHT22;39812;52.430;16.936;2022-07-23T07:41:57;28.80;90.40
53904;DHT22;39812;52.430;16.936;2022-07-23T07:44:22;28.50;90.30
53904;DHT22;39812;52.430;16.936;2022-07-23T07:46:48;28.50;89.90
53904;DHT22;39812;52.430;16.936;2022-07-23T07:49:13;28.30;90.20
53904;DHT22;39812;52.430;16.936;2022-07-23T07:51:39;28.10;90.40
53904;DHT22;39812;52.430;16.936;2022-07-23T07:54:04;28.20;90.50
53904;DHT22;39812;52.430;16.936;2022-07-23T07:56:30;27.90;90.60
53904;DHT22;39812;52.430;16.936;2022-07-23T07:58:55;27.70;90.60
53904;DHT22;39812;52.430;16.936;2022-07-23T08:01:21;27.80;90.70
53904;DHT22;39812;52.430;16.936;2022-07-23T08:03:47;27.80;90.70
53904;DHT22;39812;52.430;16.936;2022-07-23T08:06:12;27.70;91.10
53904;DHT22;39812;52.430;16.936;2022-07-23T08:08:38;27.60;90.70
53904;DHT22;39812;52.430;16.936;2022-07-23T08:11:03;27.40;90.70
53904;DHT22;39812;52.430;16.936;2022-07-23T08:13:29;26.90;91.10
53904;DHT22;39812;52.430;16.936;2022-07-23T08:15:54;26.40;91.70
53904;DHT22;39812;52.430;16.936;2022-07-23T08:18:20;25.60;92.60
53904;DHT22;39812;52.430;16.936;2022-07-23T08:20:46;25.00;93.60
53904;DHT22;39812;52.430;16.936;2022-07-23T08:23:11;24.50;94.70
53904;DHT22;39812;52.430;16.936;2022-07-23T08:25:39;24.30;95.40
53904;DHT22;39812;52.430;16.936;2022-07-23T08:28:08;24.20;95.90
53904;DHT22;39812;52.430;16.936;2022-07-23T08:30:34;24.10;96.10
53904;DHT22;39812;52.430;16.936;2022-07-23T08:33:03;24.20;97.70
53904;DHT22;39812;52.430;16.936;2022-07-23T08:35:38;24.10;98.00
53904;DHT22;39812;52.430;16.936;2022-07-23T08:38:09;23.80;99.00
53904;DHT22;39812;52.430;16.936;2022-07-23T08:40:36;23.70;99.90
53904;DHT22;39812;52.430;16.936;2022-07-23T08:43:07;23.60;99.90
53904;DHT22;39812;52.430;16.936;2022-07-23T08:45:37;23.70;99.90
53904;DHT22;39812;52.430;16.936;2022-07-23T08:48:06;23.70;99.90
53904;DHT22;39812;52.430;16.936;2022-07-23T08:50:32;23.60;99.90
53904;DHT22;39812;52.430;16.936;2022-07-23T08:53:00;23.50;99.90
53904;DHT22;39812;52.430;16.936;2022-07-23T08:55:26;23.50;99.90
53904;DHT22;39812;52.430;16.936;2022-07-23T08:57:52;23.40;99.90
53904;DHT22;39812;52.430;16.936;2022-07-23T09:00:21;23.30;99.90
53904;DHT22;39812;52.430;16.936;2022-07-23T09:02:47;23.10;99.90
53904;DHT22;39812;52.430;16.936;2022-07-23T09:05:14;23.00;99.90
53904;DHT22;39812;52.430;16.936;2022-07-23T09:08:14;22.90;99.90
53904;DHT22;39812;52.430;16.936;2022-07-23T09:13:25;22.70;99.90
53904;DHT22;39812;52.430;16.936;2022-07-23T09:15:53;22.90;99.90
53904;DHT22;39812;52.430;16.936;2022-07-23T09:18:18;22.90;99.90
53904;DHT22;39812;52.430;16.936;2022-07-23T09:20:44;23.10;99.90
53904;DHT22;39812;52.430;16.936;2022-07-23T09:23:10;23.10;99.90
53904;DHT22;39812;52.430;16.936;2022-07-23T09:25:35;23.50;99.90
53904;DHT22;39812;52.430;16.936;2022-07-23T09:28:01;23.60;99.90
53904;DHT22;39812;52.430;16.936;2022-07-23T09:30:30;23.50;99.90
53904;DHT22;39812;52.430;16.936;2022-07-23T09:33:07;23.10;99.90
53904;DHT22;39812;52.430;16.936;2022-07-23T09:35:53;22.80;99.90
53904;DHT22;39812;52.430;16.936;2022-07-23T09:38:21;22.60;99.90
53904;DHT22;39812;52.430;16.936;2022-07-23T09:41:08;22.30;99.90
53904;DHT22;39812;52.430;16.936;2022-07-23T09:43:34;22.00;99.90
53904;DHT22;39812;52.430;16.936;2022-07-23T09:48:44;21.60;99.90
53904;DHT22;39812;52.430;16.936;2022-07-23T09:51:10;21.70;99.90
53904;DHT22;39812;52.430;16.936;2022-07-23T09:53:35;22.10;99.90
53904;DHT22;39812;52.430;16.936;2022-07-23T09:56:02;22.10;99.90
53904;DHT22;39812;52.430;16.936;2022-07-23T09:58:28;22.50;99.90
53904;DHT22;39812;52.430;16.936;2022-07-23T10:00:56;22.60;99.90
53904;DHT22;39812;52.430;16.936;2022-07-23T10:03:23;22.50;99.90
53904;DHT22;39812;52.430;16.936;2022-07-23T10:05:50;22.70;99.90
53904;DHT22;39812;52.430;16.936;2022-07-23T10:08:18;22.50;99.90
53904;DHT22;39812;52.430;16.936;2022-07-23T10:10:45;21.90;99.90
53904;DHT22;39812;52.430;16.936;2022-07-23T10:13:11;21.90;99.90
53904;DHT22;39812;52.430;16.936;2022-07-23T10:15:55;22.00;99.90
53904;DHT22;39812;52.430;16.936;2022-07-23T10:18:21;21.60;99.90
53904;DHT22;39812;52.430;16.936;2022-07-23T10:20:48;21.70;99.90
53904;DHT22;39812;52.430;16.936;2022-07-23T10:23:27;21.70;99.90
53904;DHT22;39812;52.430;16.936;2022-07-23T10:32:37;21.30;99.90
53904;DHT22;39812;52.430;16.936;2022-07-23T10:34:55;21.60;99.90
53904;DHT22;39812;52.430;16.936;2022-07-23T10:37:44;22.00;99.90
53904;DHT22;39812;52.430;16.936;2022-07-23T10:40:16;22.70;99.90
53904;DHT22;39812;52.430;16.936;2022-07-23T10:42:43;22.60;99.90
53904;DHT22;39812;52.430;16.936;2022-07-23T10:47:51;22.50;99.90
53904;DHT22;39812;52.430;16.936;2022-07-23T10:50:22;22.60;99.90
53904;DHT22;39812;52.430;16.936;2022-07-23T10:53:08;22.60;99.90
53904;DHT22;39812;52.430;16.936;2022-07-23T10:58:00;22.90;99.90
53904;DHT22;39812;52.430;16.936;2022-07-23T11:00:28;23.00;99.90
53904;DHT22;39812;52.430;16.936;2022-07-23T11:02:56;23.10;99.90
53904;DHT22;39812;52.430;16.936;2022-07-23T11:05:26;23.30;99.90
53904;DHT22;39812;52.430;16.936;2022-07-23T11:10:42;23.40;99.90
53904;DHT22;39812;52.430;16.936;2022-07-23T11:31:58;25.60;99.90
53904;DHT22;39812;52.430;16.936;2022-07-23T11:34:35;25.30;99.90
53904;DHT22;39812;52.430;16.936;2022-07-23T11:37:03;25.30;99.90
53904;DHT22;39812;52.430;16.936;2022-07-23T11:39:30;25.40;99.90
53904;DHT22;39812;52.430;16.936;2022-07-23T11:41:57;25.50;99.90
53904;DHT22;39812;52.430;16.936;2022-07-23T11:46:56;25.90;99.90
53904;DHT22;39812;52.430;16.936;2022-07-23T11:49:23;26.00;99.90
53904;DHT22;39812;52.430;16.936;2022-07-23T11:52:03;26.30;99.90
53904;DHT22;39812;52.430;16.936;2022-07-23T11:54:33;28.40;97.80
53904;DHT22;39812;52.430;16.936;2022-07-23T11:56:59;29.00;95.90
53904;DHT22;39812;52.430;16.936;2022-07-23T11:59:27;29.10;95.70
53904;DHT22;39812;52.430;16.936;2022-07-23T12:02:02;28.90;95.10
53904;DHT22;39812;52.430;16.936;2022-07-23T12:07:34;26.30;97.80
53904;DHT22;39812;52.430;16.936;2022-07-23T12:10:04;25.40;99.10
53904;DHT22;39812;52.430;16.936;2022-07-23T12:12:42;24.60;99.90
53904;DHT22;39812;52.430;16.936;2022-07-23T12:15:09;24.50;99.90
53904;DHT22;39812;52.430;16.936;2022-07-23T12:17:37;24.30;99.90
53904;DHT22;39812;52.430;16.936;2022-07-23T12:20:05;24.00;99.90
53904;DHT22;39812;52.430;16.936;2022-07-23T12:22:43;23.80;99.90
53904;DHT22;39812;52.430;16.936;2022-07-23T12:25:30;23.80;99.90
53904;DHT22;39812;52.430;16.936;2022-07-23T12:28:27;24.40;99.90
53904;DHT22;39812;52.430;16.936;2022-07-23T12:30:55;24.70;99.90
53904;DHT22;39812;52.430;16.936;2022-07-23T12:33:32;25.30;99.80
53904;DHT22;39812;52.430;16.936;2022-07-23T12:36:01;26.30;98.50
53904;DHT22;39812;52.430;16.936;2022-07-23T12:38:57;27.20;97.10
53904;DHT22;39812;52.430;16.936;2022-07-23T12:41:21;27.80;96.00
53904;DHT22;39812;52.430;16.936;2022-07-23T12:43:47;29.00;94.50
53904;DHT22;39812;52.430;16.936;2022-07-23T12:46:15;30.60;92.10
53904;DHT22;39812;52.430;16.936;2022-07-23T12:48:54;30.70;90.50
53904;DHT22;39812;52.430;16.936;2022-07-23T12:51:21;30.20;90.70
53904;DHT22;39812;52.430;16.936;2022-07-23T12:53:55;30.60;90.80
53904;DHT22;39812;52.430;16.936;2022-07-23T12:56:27;29.00;91.40
53904;DHT22;39812;52.430;16.936;2022-07-23T12:59:04;28.60;92.10
53904;DHT22;39812;52.430;16.936;2022-07-23T13:01:36;28.70;92.70
53904;DHT22;39812;52.430;16.936;2022-07-23T13:06:42;28.80;93.10
53904;DHT22;39812;52.430;16.936;2022-07-23T13:09:11;27.10;94.80
53904;DHT22;39812;52.430;16.936;2022-07-23T13:11:38;26.60;95.20
53904;DHT22;39812;52.430;16.936;2022-07-23T13:14:04;27.40;95.20
53904;DHT22;39812;52.430;16.936;2022-07-23T13:16:31;28.70;94.00
53904;DHT22;39812;52.430;16.936;2022-07-23T13:18:59;30.00;92.40
53904;DHT22;39812;52.430;16.936;2022-07-23T13:21:26;28.60;93.00
53904;DHT22;39812;52.430;16.936;2022-07-23T13:23:51;27.60;94.70
53904;DHT22;39812;52.430;16.936;2022-07-23T13:26:18;28.50;93.80
53904;DHT22;39812;52.430;16.936;2022-07-23T13:28:43;27.70;93.70
53904;DHT22;39812;52.430;16.936;2022-07-23T13:31:09;27.30;94.40
53904;DHT22;39812;52.430;16.936;2022-07-23T13:33:35;26.50;95.40
53904;DHT22;39812;52.430;16.936;2022-07-23T13:36:00;26.20;96.10
53904;DHT22;39812;52.430;16.936;2022-07-23T13:38:26;25.60;96.50
53904;DHT22;39812;52.430;16.936;2022-07-23T13:40:52;25.40;97.30
53904;DHT22;39812;52.430;16.936;2022-07-23T13:43:21;25.00;97.80
53904;DHT22;39812;52.430;16.936;2022-07-23T13:45:47;25.00;97.80
53904;DHT22;39812;52.430;16.936;2022-07-23T13:48:13;25.40;97.70
53904;DHT22;39812;52.430;16.936;2022-07-23T13:50:40;26.00;96.80
53904;DHT22;39812;52.430;16.936;2022-07-23T13:53:09;26.70;95.50
53904;DHT22;39812;52.430;16.936;2022-07-23T13:55:35;27.70;94.10
53904;DHT22;39812;52.430;16.936;2022-07-23T13:58:01;27.50;94.00
53904;DHT22;39812;52.430;16.936;2022-07-23T14:00:27;27.60;94.20
53904;DHT22;39812;52.430;16.936;2022-07-23T14:02:53;27.20;94.10
53904;DHT22;39812;52.430;16.936;2022-07-23T14:05:19;26.10;94.70
53904;DHT22;39812;52.430;16.936;2022-07-23T14:07:45;25.00;95.90
53904;DHT22;39812;52.430;16.936;2022-07-23T14:10:12;24.40;97.40
53904;DHT22;39812;52.430;16.936;2022-07-23T14:12:38;24.10;98.20
53904;DHT22;39812;52.430;16.936;2022-07-23T14:15:06;23.90;98.80
53904;DHT22;39812;52.430;16.936;2022-07-23T14:17:32;23.70;99.10
53904;DHT22;39812;52.430;16.936;2022-07-23T14:19:58;24.10;99.30
53904;DHT22;39812;52.430;16.936;2022-07-23T14:22:24;25.00;97.40
53904;DHT22;39812;52.430;16.936;2022-07-23T14:24:50;25.00;97.50
53904;DHT22;39812;52.430;16.936;2022-07-23T14:27:16;25.20;97.30
53904;DHT22;39812;52.430;16.936;2022-07-23T14:29:42;24.90;97.00
53904;DHT22;39812;52.430;16.936;2022-07-23T14:32:07;24.60;97.00
53904;DHT22;39812;52.430;16.936;2022-07-23T14:34:33;24.80;97.60
53904;DHT22;39812;52.430;16.936;2022-07-23T14:36:59;24.80;97.50
53904;DHT22;39812;52.430;16.936;2022-07-23T14:39:25;24.60;97.80
53904;DHT22;39812;52.430;16.936;2022-07-23T14:41:51;24.90;97.60
53904;DHT22;39812;52.430;16.936;2022-07-23T14:44:16;24.80;97.70
53904;DHT22;39812;52.430;16.936;2022-07-23T14:46:42;24.30;98.20
53904;DHT22;39812;52.430;16.936;2022-07-23T14:49:07;24.10;99.00
53904;DHT22;39812;52.430;16.936;2022-07-23T14:51:33;24.70;98.80
53904;DHT22;39812;52.430;16.936;2022-07-23T14:53:59;25.70;97.20
53904;DHT22;39812;52.430;16.936;2022-07-23T14:56:24;25.90;96.80
53904;DHT22;39812;52.430;16.936;2022-07-23T14:58:50;26.40;96.50
53904;DHT22;39812;52.430;16.936;2022-07-23T15:01:15;26.60;95.50
53904;DHT22;39812;52.430;16.936;2022-07-23T15:03:41;26.80;94.60
53904;DHT22;39812;52.430;16.936;2022-07-23T15:06:06;29.30;93.20
53904;DHT22;39812;52.430;16.936;2022-07-23T15:08:32;30.40;91.40
53904;DHT22;39812;52.430;16.936;2022-07-23T15:10:57;31.60;88.10
53904;DHT22;39812;52.430;16.936;2022-07-23T15:13:23;33.40;82.80
53904;DHT22;39812;52.430;16.936;2022-07-23T15:15:48;34.60;79.80
53904;DHT22;39812;52.430;16.936;2022-07-23T15:18:15;33.40;77.60
53904;DHT22;39812;52.430;16.936;2022-07-23T15:20:40;32.40;80.20
53904;DHT22;39812;52.430;16.936;2022-07-23T15:23:06;30.80;82.50
53904;DHT22;39812;52.430;16.936;2022-07-23T15:25:31;28.80;86.80
53904;DHT22;39812;52.430;16.936;2022-07-23T15:27:58;27.90;89.70
53904;DHT22;39812;52.430;16.936;2022-07-23T15:30:25;27.30;90.60
53904;DHT22;39812;52.430;16.936;2022-07-23T15:32:51;26.90;91.20
53904;DHT22;39812;52.430;16.936;2022-07-23T15:35:16;26.10;92.30
53904;DHT22;39812;52.430;16.936;2022-07-23T15:37:42;25.80;93.00
53904;DHT22;39812;52.430;16.936;2022-07-23T15:40:08;25.70;93.30
53904;DHT22;39812;52.430;16.936;2022-07-23T15:42:34;25.60;93.70
53904;DHT22;39812;52.430;16.936;2022-07-23T15:45:00;25.60;93.70
53904;DHT22;39812;52.430;16.936;2022-07-23T15:47:25;25.60;94.00
53904;DHT22;39812;52.430;16.936;2022-07-23T15:49:51;25.40;94.20
53904;DHT22;39812;52.430;16.936;2022-07-23T15:52:16;25.50;94.40
53904;DHT22;39812;52.430;16.936;2022-07-23T15:54:42;25.30;94.50
53904;DHT22;39812;52.430;16.936;2022-07-23T15:57:07;25.00;95.10
53904;DHT22;39812;52.430;16.936;2022-07-23T15:59:33;25.30;95.00
53904;DHT22;39812;52.430;16.936;2022-07-23T16:01:59;25.00;95.40